Dothan Regional Airport Dothan US
ICAO: KDHN
IATA: DHN
Category: Medium
Scheduled Services: Yes

Elevation: 401 ft
TransAlt. 18000 ft.

Airport Communications:
CAIRNS APP/DEP:125.4
ATIS:135.72
CTAF:118.4
GND:121.7
VFR ADVSY SVC:118.4
ANNISTON RDO:122.2
TWR:118.4
UNICOM:122.95

KDHN Zoom In..

If you have problems with the map follow the link
https://www.worldairports.se/pages/airport.php?
ICAO=KDHN

Runways:

(A) RW 14 length 8499 ft width 150 ft
ILS 110.75 / hdg 138

(B) RW 18 length 5498 ft width 100 ft
---- / hdg 183

(C) RW 32 length 8499 ft width 150 ft
ILS 108.30 / hdg 318

(D) RW 36 length 5498 ft width 100 ft
---- / hdg 3

Location; KDHN
Day. 20 / Time. 20.53 Zulu
* Altimeter: 30.03
* Temperature: 22° c. 71.6°f.
* Wind from: 130° Speed 08 kn.
Dewpoint: 17° c.
Visibility: 10 Statute Miles.
Clouds: Broken 2600 ft.
Clouds: Broken 3500 ft.
Clouds: Overcast 4700 ft.

KDHN 202053Z AUTO 13008KT 10SM BKN026 BKN035 OVC047 22/17 A3003 RMK AO2 SLP164 T02220172 56017


Wind From 130°
Speed 08 kn.

 
 
jpsmedia.com for Web Design worldairports.se 2019   terms of use